Time;durP1;ratioP1;P1;durP2;ratioP2;P2;SDS_P1;SDS_P2;PMS_P1;PMS_P2;Temp;Humidity;BMP_temperature;BMP_pressure;BME280_temperature;BME280_humidity;BME280_pressure;Samples;Min_cycle;Max_cycle;Signal;HPM_P1;HPM_P2
2023/09/28 00:00:43;;;;;;;3.67;1.70;;;18.50;98.70;;;;;;5052443;28;20056;-69
2023/09/28 00:03:10;;;;;;;4.97;1.70;;;18.80;97.60;;;;;;5040772;28;20093;-70
2023/09/28 00:05:38;;;;;;;4.45;2.00;;;18.80;97.50;;;;;;5051435;28;20390;-70
2023/09/28 00:08:05;;;;;;;8.35;1.63;;;18.90;98.00;;;;;;5054182;28;20025;-70
2023/09/28 00:10:33;;;;;;;10.10;1.83;;;19.20;97.80;;;;;;5050285;28;20457;-70
2023/09/28 00:13:00;;;;;;;4.57;1.77;;;19.80;96.90;;;;;;5051881;28;20556;-70
2023/09/28 00:15:28;;;;;;;4.28;1.45;;;20.30;95.30;;;;;;5065751;28;20024;-70
2023/09/28 00:17:55;;;;;;;5.10;2.13;;;20.80;94.30;;;;;;5052241;28;20043;-70
2023/09/28 00:20:22;;;;;;;8.55;1.50;;;22.10;93.20;;;;;;5048236;28;20024;-70
2023/09/28 00:22:52;;;;;;;6.38;1.67;;;22.40;89.70;;;;;;5050897;28;20036;-69
2023/09/28 00:25:22;;;;;;;7.55;1.77;;;22.80;88.90;;;;;;5056220;28;20044;-70
2023/09/28 00:27:52;;;;;;;3.55;1.45;;;22.50;90.90;;;;;;5051339;28;20091;-70
2023/09/28 00:30:22;;;;;;;9.35;1.70;;;22.10;88.60;;;;;;5057982;28;20478;-69
2023/09/28 00:32:51;;;;;;;5.57;1.60;;;22.00;89.90;;;;;;5048140;28;20052;-70
2023/09/28 00:35:19;;;;;;;5.82;1.65;;;21.90;91.50;;;;;;5053006;28;20032;-70
2023/09/28 00:37:48;;;;;;;5.32;1.50;;;22.10;90.60;;;;;;5050571;28;20040;-69
2023/09/28 00:42:48;;;;;;;4.30;1.63;;;22.10;88.10;;;;;;5056966;28;20119;-69
2023/09/28 00:45:16;;;;;;;9.68;1.83;;;22.00;89.90;;;;;;5055769;28;20021;-69
2023/09/28 00:47:45;;;;;;;4.35;1.63;;;21.90;90.50;;;;;;5053195;28;20032;-70
2023/09/28 00:50:20;;;;;;;5.90;2.00;;;22.00;90.00;;;;;;5045873;28;20041;-70
2023/09/28 00:53:00;;;;;;;6.60;1.40;;;22.20;88.20;;;;;;5047041;28;20037;-70
2023/09/28 00:55:29;;;;;;;7.63;1.70;;;22.10;90.80;;;;;;5060124;28;20032;-70
2023/09/28 00:58:02;;;;;;;7.55;1.60;;;22.20;89.20;;;;;;5050425;28;20025;-70
2023/09/28 01:00:31;;;;;;;10.73;1.83;;;22.10;89.30;;;;;;5059488;28;20116;-70
2023/09/28 01:03:02;;;;;;;4.20;1.55;;;22.00;87.90;;;;;;5059611;28;20024;-70
2023/09/28 01:05:33;;;;;;;6.45;1.73;;;21.70;85.70;;;;;;5048063;28;20126;-69
2023/09/28 01:08:14;;;;;;;4.95;1.40;;;21.80;87.30;;;;;;5052776;28;20120;-69
2023/09/28 01:10:43;;;;;;;6.93;1.95;;;22.30;84.90;;;;;;5050406;28;20044;-67
2023/09/28 01:13:12;;;;;;;8.70;2.20;;;22.40;82.90;;;;;;5051336;28;20174;-70
2023/09/28 01:15:40;;;;;;;4.38;1.40;;;22.70;82.30;;;;;;5051120;28;20051;-71
2023/09/28 01:18:16;;;;;;;5.90;1.90;;;23.10;85.10;;;;;;5048306;28;20380;-69
2023/09/28 01:20:45;;;;;;;10.43;2.10;;;23.60;81.40;;;;;;5055821;28;20032;-70
2023/09/28 01:23:13;;;;;;;5.45;1.77;;;23.60;79.50;;;;;;5052271;28;20055;-71
2023/09/28 01:25:41;;;;;;;7.60;1.52;;;24.10;79.20;;;;;;5050558;28;20477;-69
2023/09/28 01:28:10;;;;;;;5.38;1.65;;;24.40;74.70;;;;;;5046229;28;20073;-70
2023/09/28 01:30:37;;;;;;;6.45;1.60;;;24.40;73.60;;;;;;5043178;28;20032;-70
2023/09/28 01:33:05;;;;;;;7.82;1.88;;;25.00;76.50;;;;;;5051010;28;20033;-69
2023/09/28 01:35:35;;;;;;;5.53;1.83;;;25.20;72.40;;;;;;5046444;28;20045;-70
2023/09/28 01:38:21;;;;;;;5.65;1.80;;;24.90;74.20;;;;;;5055584;28;20034;-71
2023/09/28 01:40:50;;;;;;;6.45;2.20;;;25.10;74.90;;;;;;5054736;28;20052;-70
2023/09/28 01:43:17;;;;;;;8.40;2.13;;;24.60;72.00;;;;;;5052864;28;20099;-69
2023/09/28 01:45:45;;;;;;;8.20;1.95;;;24.70;76.30;;;;;;5063304;28;20381;-72
2023/09/28 01:48:14;;;;;;;6.68;2.22;;;24.80;72.50;;;;;;5052288;28;20020;-69
2023/09/28 01:50:41;;;;;;;5.82;2.78;;;24.70;72.90;;;;;;5054099;28;20072;-71
2023/09/28 01:53:09;;;;;;;9.32;2.85;;;24.70;73.70;;;;;;5050490;28;20063;-70
2023/09/28 01:55:37;;;;;;;10.02;2.42;;;25.50;71.10;;;;;;5057759;28;20126;-70
2023/09/28 01:58:07;;;;;;;6.78;2.15;;;25.40;69.00;;;;;;5062314;28;20033;-69
2023/09/28 02:00:38;;;;;;;6.35;2.28;;;25.20;69.30;;;;;;5057078;28;20060;-70
2023/09/28 02:03:08;;;;;;;6.45;2.25;;;24.70;68.30;;;;;;5053921;28;20523;-72
2023/09/28 02:05:36;;;;;;;7.10;2.05;;;24.70;71.70;;;;;;5051618;28;20036;-71
2023/09/28 02:08:05;;;;;;;8.98;2.30;;;24.80;71.10;;;;;;5059385;28;20025;-71
2023/09/28 02:10:33;;;;;;;7.13;2.00;;;23.90;71.80;;;;;;5052843;28;20127;-70
2023/09/28 02:13:01;;;;;;;6.65;1.73;;;24.00;73.60;;;;;;5054565;28;20033;-69
2023/09/28 02:15:28;;;;;;;8.15;1.92;;;24.00;73.90;;;;;;5054489;28;20025;-69
2023/09/28 02:17:56;;;;;;;12.15;2.35;;;24.10;74.30;;;;;;5056873;28;20885;-69
2023/09/28 02:20:23;;;;;;;7.28;2.28;;;24.00;72.80;;;;;;5053373;28;20424;-69
2023/09/28 02:22:54;;;;;;;5.30;1.63;;;23.60;75.20;;;;;;5046364;28;20083;-70
2023/09/28 02:25:24;;;;;;;4.55;1.80;;;23.30;74.70;;;;;;5055566;28;20033;-71
2023/09/28 02:27:53;;;;;;;6.47;1.80;;;23.50;75.90;;;;;;5055784;28;20456;-69
2023/09/28 02:30:22;;;;;;;5.35;1.55;;;23.80;76.60;;;;;;5067419;28;20102;-70
2023/09/28 02:32:51;;;;;;;4.50;1.58;;;24.10;73.50;;;;;;5055845;28;20028;-70
2023/09/28 02:35:19;;;;;;;4.70;1.70;;;24.20;73.60;;;;;;5055143;28;20113;-70
2023/09/28 02:37:48;;;;;;;5.50;2.10;;;24.10;71.30;;;;;;5055507;28;20078;-72
2023/09/28 02:40:17;;;;;;;4.70;1.60;;;24.00;73.00;;;;;;5055403;28;20020;-69
2023/09/28 02:42:46;;;;;;;9.27;1.77;;;24.20;73.90;;;;;;5056569;28;20029;-70
2023/09/28 02:45:13;;;;;;;5.00;1.83;;;24.20;73.20;;;;;;5060536;28;20037;-70
2023/09/28 02:47:42;;;;;;;7.15;1.60;;;23.80;71.30;;;;;;5056990;28;20371;-69
2023/09/28 02:50:11;;;;;;;3.08;1.33;;;23.30;73.30;;;;;;5059702;28;20040;-71
2023/09/28 02:52:42;;;;;;;4.75;1.50;;;23.40;74.40;;;;;;5054889;28;20025;-70
2023/09/28 02:55:12;;;;;;;6.13;1.67;;;23.30;75.70;;;;;;5054691;28;20462;-69
2023/09/28 02:57:40;;;;;;;4.05;1.50;;;23.80;75.10;;;;;;5054487;28;20528;-70
2023/09/28 03:02:56;;;;;;;4.75;1.25;;;24.10;74.80;;;;;;5055253;28;20042;-69
2023/09/28 03:05:26;;;;;;;5.15;1.73;;;23.40;74.80;;;;;;5057413;28;21209;-70
2023/09/28 03:07:53;;;;;;;4.80;1.48;;;23.20;74.00;;;;;;5053568;28;20029;-68
2023/09/28 03:10:21;;;;;;;4.40;1.50;;;23.30;74.70;;;;;;5060952;28;20036;-70
2023/09/28 03:12:51;;;;;;;7.72;1.45;;;22.90;75.90;;;;;;5058952;28;20116;-70
2023/09/28 03:15:20;;;;;;;7.57;1.42;;;22.80;76.40;;;;;;5055171;28;20377;-69
2023/09/28 03:17:47;;;;;;;7.60;1.80;;;22.80;76.60;;;;;;5056321;28;20032;-68
2023/09/28 03:20:38;;;;;;;5.95;2.00;;;22.70;77.20;;;;;;5055962;28;20025;-69
2023/09/28 03:23:04;;;;;;;8.65;1.70;;;22.70;77.70;;;;;;5064778;28;20049;-70
2023/09/28 03:25:31;;;;;;;7.95;1.55;;;22.80;77.60;;;;;;5058701;28;20524;-70
2023/09/28 03:27:59;;;;;;;6.95;1.98;;;22.80;76.70;;;;;;5057770;28;20029;-70
2023/09/28 03:30:28;;;;;;;7.68;1.67;;;23.00;77.70;;;;;;5055635;28;20037;-70
2023/09/28 03:32:56;;;;;;;4.18;1.67;;;23.00;77.20;;;;;;5049811;28;20036;-70
2023/09/28 03:35:24;;;;;;;6.35;1.80;;;23.70;76.40;;;;;;5053048;28;20032;-69
2023/09/28 03:37:57;;;;;;;8.98;1.65;;;24.50;72.10;;;;;;5054435;28;20025;-70
2023/09/28 03:40:33;;;;;;;4.15;1.48;;;24.20;71.40;;;;;;5058064;28;20021;-68
2023/09/28 03:43:01;;;;;;;4.80;1.88;;;23.80;72.90;;;;;;5052052;28;20037;-69
2023/09/28 03:45:28;;;;;;;4.07;1.83;;;23.20;76.70;;;;;;5053910;28;20390;-67
2023/09/28 03:47:57;;;;;;;5.47;1.40;;;22.90;77.40;;;;;;5048339;28;20040;-70
2023/09/28 03:50:24;;;;;;;3.35;1.40;;;22.80;78.90;;;;;;5053761;28;20045;-70
2023/09/28 03:52:52;;;;;;;5.88;1.35;;;23.60;76.60;;;;;;5063244;28;20035;-70
2023/09/28 03:55:24;;;;;;;4.47;1.55;;;24.00;75.20;;;;;;5053639;28;20047;-72
2023/09/28 03:57:52;;;;;;;5.00;0.98;;;24.40;71.70;;;;;;5047694;28;20036;-71
2023/09/28 04:00:20;;;;;;;5.53;1.58;;;24.60;71.80;;;;;;5046845;28;20029;-70
2023/09/28 04:02:52;;;;;;;3.33;1.15;;;24.30;72.60;;;;;;5052992;28;20467;-70
2023/09/28 04:05:21;;;;;;;5.03;1.40;;;24.40;71.90;;;;;;5044842;28;20478;-70
2023/09/28 04:07:49;;;;;;;6.78;1.33;;;24.50;71.70;;;;;;5046305;28;20036;-70
2023/09/28 04:10:17;;;;;;;3.97;1.10;;;24.50;71.60;;;;;;5051707;28;20066;-69
2023/09/28 04:12:45;;;;;;;2.20;1.00;;;24.60;70.30;;;;;;5048465;28;20041;-72
2023/09/28 04:15:12;;;;;;;2.53;1.05;;;24.70;70.40;;;;;;5051765;28;20040;-70
2023/09/28 04:17:40;;;;;;;6.95;1.17;;;24.90;69.00;;;;;;5045264;28;20039;-69
2023/09/28 04:20:09;;;;;;;5.72;1.35;;;24.90;68.50;;;;;;5044920;28;20032;-70
2023/09/28 04:22:37;;;;;;;3.05;1.02;;;24.90;67.50;;;;;;5050821;28;20035;-70
2023/09/28 04:25:05;;;;;;;2.55;0.80;;;25.00;68.30;;;;;;5052522;28;20191;-70
2023/09/28 04:27:33;;;;;;;2.45;0.90;;;24.50;70.00;;;;;;5051242;28;20031;-70
2023/09/28 04:30:00;;;;;;;3.17;0.90;;;24.10;70.80;;;;;;5052941;28;20498;-71
2023/09/28 04:32:28;;;;;;;2.78;1.00;;;24.10;70.50;;;;;;5057491;28;20756;-69
2023/09/28 04:34:56;;;;;;;3.95;0.73;;;24.30;72.10;;;;;;5059387;28;20111;-72
2023/09/28 04:37:26;;;;;;;3.85;1.05;;;24.50;71.30;;;;;;5050648;28;20037;-69
2023/09/28 04:39:53;;;;;;;3.13;1.00;;;24.40;68.40;;;;;;5056739;28;20028;-69
2023/09/28 04:42:21;;;;;;;2.28;0.68;;;24.40;69.70;;;;;;5054963;28;20466;-70
2023/09/28 04:44:49;;;;;;;1.77;0.80;;;24.60;68.70;;;;;;5052963;28;20075;-69
2023/09/28 04:47:17;;;;;;;3.20;0.95;;;24.60;69.30;;;;;;5049603;28;20020;-70
2023/09/28 04:49:45;;;;;;;1.90;0.90;;;24.60;68.80;;;;;;5053078;28;20127;-71
2023/09/28 04:52:13;;;;;;;1.75;0.82;;;24.60;69.70;;;;;;5047213;28;20020;-70
2023/09/28 04:54:43;;;;;;;4.85;1.00;;;24.70;68.20;;;;;;5056653;28;20032;-71
2023/09/28 04:57:11;;;;;;;2.17;0.82;;;24.60;69.40;;;;;;5036881;28;20065;-70
2023/09/28 04:59:39;;;;;;;3.85;1.00;;;24.70;69.10;;;;;;5051106;28;20082;-69
2023/09/28 05:02:07;;;;;;;1.52;0.70;;;24.70;69.90;;;;;;5044263;28;20021;-69
2023/09/28 05:04:34;;;;;;;1.65;0.73;;;24.50;69.20;;;;;;5050481;28;20366;-70
2023/09/28 05:07:02;;;;;;;1.88;0.82;;;24.70;69.30;;;;;;5055537;28;20051;-70
2023/09/28 05:09:30;;;;;;;3.47;0.90;;;24.90;69.00;;;;;;5058789;28;20087;-70
2023/09/28 05:11:59;;;;;;;1.40;0.77;;;25.10;67.50;;;;;;5053613;28;20036;-69
2023/09/28 05:14:27;;;;;;;1.88;0.68;;;25.00;67.90;;;;;;5049130;28;20389;-71
2023/09/28 05:16:55;;;;;;;1.55;0.60;;;25.00;66.60;;;;;;5050674;28;20021;-69
2023/09/28 05:19:22;;;;;;;1.15;0.70;;;24.90;66.60;;;;;;5048231;28;20445;-69
2023/09/28 05:21:50;;;;;;;2.17;0.68;;;24.50;68.40;;;;;;5048132;28;20033;-69
2023/09/28 05:24:17;;;;;;;3.03;0.90;;;24.50;68.50;;;;;;5053518;28;20497;-70
2023/09/28 05:26:45;;;;;;;2.72;0.90;;;24.30;69.30;;;;;;5046926;28;20036;-71
2023/09/28 05:29:12;;;;;;;5.78;0.98;;;24.40;69.60;;;;;;5046256;28;20025;-70
2023/09/28 05:31:40;;;;;;;4.57;1.17;;;24.20;70.50;;;;;;5051772;28;20033;-70
2023/09/28 05:34:08;;;;;;;3.72;0.90;;;24.00;70.70;;;;;;5046056;28;20045;-69
2023/09/28 05:36:35;;;;;;;3.30;1.23;;;24.00;72.70;;;;;;5054183;28;20466;-69
2023/09/28 05:39:03;;;;;;;2.20;1.13;;;24.10;70.70;;;;;;5051738;28;20028;-69
2023/09/28 05:41:31;;;;;;;2.83;0.80;;;24.20;70.00;;;;;;5052629;28;20060;-70
2023/09/28 05:43:59;;;;;;;3.00;1.00;;;24.30;71.00;;;;;;5051118;28;20062;-70
2023/09/28 05:46:27;;;;;;;3.97;0.90;;;24.30;71.20;;;;;;5049374;28;20028;-70
2023/09/28 05:48:55;;;;;;;2.22;0.98;;;24.10;71.40;;;;;;5048966;28;20052;-70
2023/09/28 05:51:22;;;;;;;2.03;0.75;;;24.00;70.90;;;;;;5053381;28;20469;-68
2023/09/28 05:53:53;;;;;;;2.90;1.00;;;23.80;72.60;;;;;;5064761;28;20036;-69
2023/09/28 05:56:21;;;;;;;1.60;1.05;;;23.90;71.80;;;;;;5057383;28;20029;-68
2023/09/28 05:58:48;;;;;;;2.83;1.23;;;24.10;71.20;;;;;;5061433;28;20025;-69
2023/09/28 06:01:21;;;;;;;1.80;0.90;;;24.00;71.30;;;;;;5057690;28;20484;-69
2023/09/28 06:03:48;;;;;;;5.95;1.35;;;23.80;71.50;;;;;;5048238;28;20033;-69
2023/09/28 06:06:20;;;;;;;2.47;1.00;;;23.70;72.40;;;;;;5051437;28;20029;-70
2023/09/28 06:08:50;;;;;;;1.88;1.10;;;23.60;73.20;;;;;;5053462;28;20362;-69
2023/09/28 06:11:19;;;;;;;3.22;1.10;;;23.20;75.00;;;;;;5055031;28;20059;-67
2023/09/28 06:13:47;;;;;;;2.85;1.20;;;23.20;75.40;;;;;;5060568;28;20083;-69
2023/09/28 06:16:15;;;;;;;1.95;0.80;;;23.20;75.40;;;;;;5055038;28;20028;-69
2023/09/28 06:18:44;;;;;;;3.95;1.38;;;23.30;75.20;;;;;;5055230;28;20367;-68
2023/09/28 06:21:12;;;;;;;1.45;0.80;;;23.50;73.90;;;;;;5053375;28;20036;-68
2023/09/28 06:23:40;;;;;;;3.90;1.02;;;23.40;74.10;;;;;;5057409;28;20482;-69
2023/09/28 06:26:07;;;;;;;2.33;0.95;;;23.10;75.90;;;;;;5058897;28;20020;-68
2023/09/28 06:28:35;;;;;;;4.57;1.35;;;23.10;75.70;;;;;;5054520;28;20024;-69
2023/09/28 06:31:02;;;;;;;4.97;1.50;;;22.90;77.10;;;;;;5058186;28;20039;-70
2023/09/28 06:33:30;;;;;;;2.00;1.15;;;22.80;75.90;;;;;;5051359;28;20094;-69
2023/09/28 06:35:58;;;;;;;2.72;1.20;;;22.70;77.20;;;;;;5059555;28;20083;-69
2023/09/28 06:38:25;;;;;;;2.40;1.23;;;22.90;76.80;;;;;;5053013;28;20029;-70
2023/09/28 06:40:52;;;;;;;4.57;1.30;;;23.10;76.10;;;;;;5039531;28;20021;-69
2023/09/28 06:43:20;;;;;;;2.17;1.08;;;23.00;76.40;;;;;;5041743;28;20375;-69
2023/09/28 06:45:48;;;;;;;4.28;1.30;;;22.90;76.40;;;;;;5057982;28;20028;-69
2023/09/28 06:48:15;;;;;;;2.60;1.15;;;22.60;77.30;;;;;;5056819;28;20017;-71
2023/09/28 06:50:42;;;;;;;2.55;1.40;;;22.50;78.00;;;;;;5048118;28;20086;-70
2023/09/28 06:53:10;;;;;;;2.65;1.10;;;22.40;80.00;;;;;;5056007;28;20147;-70
2023/09/28 06:55:37;;;;;;;4.57;1.27;;;22.30;80.10;;;;;;5055940;28;20512;-70
2023/09/28 06:58:06;;;;;;;4.07;1.90;;;22.20;79.90;;;;;;5056746;28;20120;-69
2023/09/28 07:00:34;;;;;;;2.47;1.33;;;22.10;79.90;;;;;;5050762;28;20398;-69
2023/09/28 07:03:01;;;;;;;5.15;1.60;;;22.30;79.00;;;;;;5055532;28;20074;-70
2023/09/28 07:05:28;;;;;;;4.78;1.45;;;22.00;79.40;;;;;;5051308;28;20029;-69
2023/09/28 07:07:56;;;;;;;4.07;1.60;;;22.10;80.50;;;;;;5053397;28;20044;-70
2023/09/28 07:10:23;;;;;;;5.05;1.60;;;22.10;81.20;;;;;;5048705;28;20095;-71
2023/09/28 07:12:51;;;;;;;3.75;1.40;;;22.20;80.70;;;;;;5047355;28;20021;-70
2023/09/28 07:15:19;;;;;;;3.22;1.65;;;22.00;81.80;;;;;;5051685;28;20596;-70
2023/09/28 07:17:46;;;;;;;3.33;1.52;;;21.80;81.40;;;;;;5049586;28;20029;-70
2023/09/28 07:20:16;;;;;;;2.75;1.38;;;21.80;81.80;;;;;;5052032;28;20032;-70
2023/09/28 07:22:44;;;;;;;4.70;1.38;;;21.60;82.50;;;;;;5053728;28;20583;-69
2023/09/28 07:25:11;;;;;;;4.85;1.60;;;21.50;83.80;;;;;;5040606;28;20028;-70
2023/09/28 07:27:41;;;;;;;2.65;1.73;;;21.40;83.90;;;;;;5043020;28;20036;-69
2023/09/28 07:30:10;;;;;;;4.47;1.80;;;21.40;84.50;;;;;;5044733;28;20498;-68
2023/09/28 07:32:39;;;;;;;4.50;1.80;;;21.20;85.00;;;;;;5044081;28;20459;-69
2023/09/28 07:35:11;;;;;;;4.65;1.80;;;21.00;86.30;;;;;;5044414;28;20234;-71
2023/09/28 07:37:39;;;;;;;5.32;2.40;;;20.90;87.20;;;;;;5053584;28;20663;-70
2023/09/28 07:40:08;;;;;;;12.75;5.25;;;20.90;87.00;;;;;;5056715;28;20033;-69
2023/09/28 07:42:35;;;;;;;19.92;6.60;;;20.80;87.70;;;;;;5052590;28;20031;-69
2023/09/28 07:45:03;;;;;;;28.27;9.43;;;20.60;88.20;;;;;;5037955;28;20084;-70
2023/09/28 07:47:30;;;;;;;13.35;4.28;;;20.50;89.00;;;;;;5052767;28;20032;-69
2023/09/28 07:49:58;;;;;;;8.65;4.13;;;20.30;89.60;;;;;;5050375;28;20048;-69
2023/09/28 07:52:26;;;;;;;7.07;3.67;;;20.30;90.00;;;;;;5059807;28;20481;-70
2023/09/28 07:54:54;;;;;;;8.80;3.03;;;20.20;90.10;;;;;;5056084;28;20016;-69
2023/09/28 07:57:22;;;;;;;12.88;3.65;;;20.20;90.20;;;;;;5054770;28;20049;-70
2023/09/28 07:59:51;;;;;;;5.10;3.67;;;20.10;90.50;;;;;;5057235;28;20385;-69
2023/09/28 08:02:19;;;;;;;8.68;3.67;;;20.00;90.70;;;;;;5052876;28;20516;-70
2023/09/28 08:04:48;;;;;;;6.03;3.80;;;19.90;91.10;;;;;;5048002;28;20663;-69
2023/09/28 08:07:17;;;;;;;6.18;3.60;;;19.80;91.30;;;;;;5052230;28;20100;-69
2023/09/28 08:09:45;;;;;;;8.57;4.30;;;19.80;91.40;;;;;;5053444;28;20132;-68
2023/09/28 08:12:13;;;;;;;5.32;3.72;;;19.80;91.50;;;;;;5054176;28;20085;-70
2023/09/28 08:14:41;;;;;;;6.15;3.58;;;19.70;91.80;;;;;;5054068;28;20111;-70
2023/09/28 08:17:12;;;;;;;8.10;4.30;;;19.60;91.90;;;;;;5043302;28;20052;-70
2023/09/28 08:19:40;;;;;;;6.65;4.20;;;19.50;92.10;;;;;;5057208;28;20374;-70
2023/09/28 08:22:07;;;;;;;9.60;4.50;;;19.50;92.20;;;;;;5063069;28;20556;-69
2023/09/28 08:24:34;;;;;;;7.78;4.60;;;19.60;92.30;;;;;;5062136;28;20159;-69
2023/09/28 08:27:04;;;;;;;7.22;4.22;;;19.40;92.50;;;;;;5059304;28;20036;-70
2023/09/28 08:29:31;;;;;;;10.20;4.80;;;19.40;92.60;;;;;;5055081;28;20021;-69
2023/09/28 08:31:59;;;;;;;9.75;4.93;;;19.40;92.60;;;;;;5052856;28;20029;-69
2023/09/28 08:34:26;;;;;;;8.90;4.68;;;19.30;93.00;;;;;;5047427;28;20077;-69
2023/09/28 08:36:54;;;;;;;8.95;5.35;;;19.20;93.00;;;;;;5052513;28;20033;-69
2023/09/28 08:39:21;;;;;;;10.52;5.03;;;19.10;93.20;;;;;;5056564;28;20364;-67
2023/09/28 08:41:55;;;;;;;8.88;5.43;;;19.10;93.20;;;;;;5051673;28;20111;-70
2023/09/28 08:44:26;;;;;;;11.02;6.05;;;19.30;93.00;;;;;;5055171;28;20064;-70
2023/09/28 08:46:59;;;;;;;12.45;6.38;;;19.40;92.90;;;;;;5050232;28;20036;-70
2023/09/28 08:49:29;;;;;;;10.10;6.65;;;19.20;93.10;;;;;;5052152;28;20060;-70
2023/09/28 08:51:58;;;;;;;11.75;6.60;;;19.10;93.30;;;;;;5047462;28;20041;-71
2023/09/28 08:54:27;;;;;;;11.38;6.40;;;19.20;93.30;;;;;;5039974;28;20024;-70
2023/09/28 08:56:57;;;;;;;12.50;6.80;;;19.00;93.40;;;;;;5038017;28;20115;-69
2023/09/28 08:59:28;;;;;;;9.70;6.70;;;19.00;93.50;;;;;;5041559;28;20056;-70
2023/09/28 09:01:57;;;;;;;11.20;7.13;;;18.90;93.60;;;;;;5040100;28;20420;-70
2023/09/28 09:04:25;;;;;;;13.40;7.55;;;18.90;93.90;;;;;;5040001;28;20029;-72
2023/09/28 09:06:54;;;;;;;10.48;7.22;;;18.80;93.90;;;;;;5047857;28;20047;-71
2023/09/28 09:09:23;;;;;;;12.90;8.32;;;18.80;94.10;;;;;;5042941;28;20036;-70
2023/09/28 09:11:53;;;;;;;12.13;8.07;;;18.70;94.20;;;;;;5050040;28;20340;-70
2023/09/28 09:14:25;;;;;;;11.52;7.90;;;18.70;94.40;;;;;;5050244;28;20060;-69
2023/09/28 09:16:52;;;;;;;12.90;8.80;;;18.60;94.50;;;;;;5059698;28;20031;-69
2023/09/28 09:19:21;;;;;;;12.50;8.05;;;18.50;94.70;;;;;;5055884;28;20578;-68
2023/09/28 09:21:49;;;;;;;11.07;8.13;;;18.50;94.90;;;;;;5060235;28;20037;-70
2023/09/28 09:24:20;;;;;;;16.45;8.43;;;18.50;94.90;;;;;;5065473;28;20136;-69
2023/09/28 09:26:51;;;;;;;11.02;8.50;;;18.40;95.00;;;;;;5056173;28;20036;-69
2023/09/28 09:29:19;;;;;;;22.83;9.95;;;18.40;95.20;;;;;;5057265;28;20037;-70
2023/09/28 09:31:47;;;;;;;11.95;8.50;;;18.40;95.20;;;;;;5064390;28;20398;-70
2023/09/28 09:34:19;;;;;;;11.93;8.90;;;18.30;95.40;;;;;;5062551;28;20044;-69
2023/09/28 09:36:56;;;;;;;13.88;8.90;;;18.30;95.50;;;;;;5053748;28;20036;-70
2023/09/28 09:39:32;;;;;;;11.35;8.48;;;18.30;95.50;;;;;;5051144;28;20497;-70
2023/09/28 09:41:59;;;;;;;15.73;9.35;;;18.20;95.60;;;;;;5053486;28;20032;-69
2023/09/28 09:44:27;;;;;;;13.20;8.82;;;18.30;95.80;;;;;;5054116;28;20036;-69
2023/09/28 09:46:56;;;;;;;11.40;8.80;;;18.20;95.70;;;;;;5044555;28;20017;-69
2023/09/28 09:49:24;;;;;;;14.25;10.43;;;18.10;95.90;;;;;;5048001;28;20107;-69
2023/09/28 09:51:52;;;;;;;16.35;10.25;;;18.10;96.10;;;;;;5051112;28;20023;-67
2023/09/28 09:54:20;;;;;;;18.70;10.50;;;18.00;96.20;;;;;;5055097;28;20020;-68
2023/09/28 09:56:50;;;;;;;14.45;10.07;;;18.00;96.30;;;;;;5048208;28;20061;-69
2023/09/28 09:59:20;;;;;;;15.45;9.63;;;18.00;96.20;;;;;;5051544;28;20059;-69
2023/09/28 10:01:53;;;;;;;16.48;10.50;;;18.00;96.40;;;;;;5058260;28;20060;-70
2023/09/28 10:04:23;;;;;;;19.13;9.73;;;18.00;96.40;;;;;;5059634;28;20029;-68
2023/09/28 10:06:52;;;;;;;16.77;11.25;;;17.80;96.50;;;;;;5056821;28;20028;-69
2023/09/28 10:09:21;;;;;;;18.33;10.05;;;17.80;96.60;;;;;;5055987;28;20260;-69
2023/09/28 10:11:50;;;;;;;14.90;10.32;;;17.80;96.80;;;;;;5061066;28;20061;-69
2023/09/28 10:14:19;;;;;;;13.35;10.07;;;17.70;96.80;;;;;;5059284;28;20098;-69
2023/09/28 10:16:54;;;;;;;17.85;10.13;;;17.70;96.90;;;;;;5061088;28;20033;-69
2023/09/28 10:19:25;;;;;;;17.35;10.10;;;17.70;97.00;;;;;;5068054;28;20027;-69
2023/09/28 10:21:55;;;;;;;18.83;10.98;;;17.60;97.00;;;;;;5055716;28;20071;-69
2023/09/28 10:24:34;;;;;;;15.90;9.82;;;17.70;97.00;;;;;;5060251;28;20079;-68
2023/09/28 10:27:12;;;;;;;14.15;9.60;;;17.60;97.10;;;;;;5055333;28;20060;-68
2023/09/28 10:29:40;;;;;;;13.80;10.05;;;17.50;97.10;;;;;;5049315;28;20039;-68
2023/09/28 10:32:30;;;;;;;16.10;9.82;;;17.50;97.30;;;;;;5050477;28;20037;-67
2023/09/28 10:35:21;;;;;;;16.67;9.80;;;17.50;97.10;;;;;;5054479;28;20470;-69
2023/09/28 10:38:16;;;;;;;14.75;10.00;;;17.40;97.30;;;;;;5051908;28;20586;-69
2023/09/28 10:40:48;;;;;;;20.45;11.18;;;17.30;97.40;;;;;;5053885;28;20044;-69
2023/09/28 10:43:31;;;;;;;18.10;9.77;;;17.30;97.40;;;;;;5055875;28;20029;-68
2023/09/28 10:46:03;;;;;;;19.73;11.32;;;17.20;97.60;;;;;;5053677;28;20386;-68
2023/09/28 10:48:47;;;;;;;19.60;11.48;;;17.20;97.60;;;;;;5051242;28;20029;-69
2023/09/28 10:51:16;;;;;;;15.73;10.73;;;17.20;97.70;;;;;;5056072;28;20055;-69
2023/09/28 10:53:44;;;;;;;16.98;11.88;;;17.10;97.70;;;;;;5051244;28;20025;-70
2023/09/28 10:56:12;;;;;;;19.25;12.10;;;17.00;97.80;;;;;;5066360;28;20108;-69
2023/09/28 10:58:41;;;;;;;20.58;12.23;;;17.00;97.90;;;;;;5058154;28;20096;-69
2023/09/28 11:01:10;;;;;;;19.35;12.10;;;16.90;98.00;;;;;;5052433;28;20030;-70
2023/09/28 11:03:38;;;;;;;15.48;11.20;;;16.90;98.40;;;;;;5047780;28;20033;-69
2023/09/28 11:06:07;;;;;;;22.05;13.77;;;16.90;98.30;;;;;;5061143;28;20036;-70
2023/09/28 11:08:36;;;;;;;24.02;13.80;;;16.80;98.20;;;;;;5052031;28;20108;-69
2023/09/28 11:11:04;;;;;;;21.23;13.23;;;16.80;98.40;;;;;;5056248;28;20037;-69
2023/09/28 11:13:34;;;;;;;21.05;13.20;;;16.80;98.50;;;;;;5056594;28;20037;-69
2023/09/28 11:16:01;;;;;;;21.52;13.32;;;16.80;98.50;;;;;;5044926;28;20033;-70
2023/09/28 11:18:30;;;;;;;25.05;14.68;;;16.80;98.70;;;;;;5049873;28;20021;-70
2023/09/28 11:21:03;;;;;;;21.20;12.80;;;16.80;98.50;;;;;;5055111;28;20031;-70
2023/09/28 11:23:36;;;;;;;19.70;12.23;;;16.70;98.70;;;;;;5059950;28;20506;-69
2023/09/28 11:26:05;;;;;;;22.75;13.60;;;16.70;98.50;;;;;;5053374;28;20025;-68
2023/09/28 11:28:33;;;;;;;26.50;13.70;;;16.60;98.50;;;;;;5056696;28;20107;-70
2023/09/28 11:31:13;;;;;;;23.70;13.20;;;16.60;98.60;;;;;;5063386;28;20477;-69
2023/09/28 11:33:43;;;;;;;19.17;12.65;;;16.50;98.60;;;;;;5042855;28;20162;-71
2023/09/28 11:36:16;;;;;;;20.92;12.82;;;16.50;98.60;;;;;;5053195;28;20024;-71
2023/09/28 11:38:45;;;;;;;21.10;13.07;;;16.50;98.50;;;;;;5059008;28;20081;-69
2023/09/28 11:41:16;;;;;;;23.38;11.82;;;16.40;98.50;;;;;;5051482;28;20032;-69
2023/09/28 11:43:54;;;;;;;25.90;11.90;;;16.40;98.50;;;;;;5055897;28;20028;-71
2023/09/28 11:46:32;;;;;;;24.80;12.48;;;16.30;98.50;;;;;;5057124;28;20107;-69
2023/09/28 11:49:06;;;;;;;17.35;10.75;;;16.30;98.60;;;;;;5052182;28;20033;-69
2023/09/28 11:51:35;;;;;;;16.80;11.45;;;16.20;98.70;;;;;;5049636;28;20033;-69
2023/09/28 11:54:11;;;;;;;16.33;11.43;;;16.20;98.70;;;;;;5058764;28;20021;-69
2023/09/28 11:56:41;;;;;;;18.15;11.95;;;16.20;99.00;;;;;;5055307;28;20131;-69
2023/09/28 11:59:09;;;;;;;16.52;11.43;;;16.10;99.00;;;;;;5056285;28;20052;-68
2023/09/28 12:01:37;;;;;;;23.52;13.18;;;16.10;99.20;;;;;;5052636;28;20032;-69
2023/09/28 12:04:04;;;;;;;18.88;12.18;;;16.10;99.30;;;;;;5054384;28;20037;-69
2023/09/28 12:06:33;;;;;;;20.02;12.20;;;16.10;99.30;;;;;;5059363;28;20032;-69
2023/09/28 12:09:01;;;;;;;17.33;12.05;;;16.20;99.40;;;;;;5057103;28;20382;-68
2023/09/28 12:11:28;;;;;;;18.30;12.40;;;16.20;99.30;;;;;;5059191;28;20028;-70
2023/09/28 12:13:55;;;;;;;22.67;13.13;;;16.10;99.10;;;;;;5054005;28;20028;-69
2023/09/28 12:16:23;;;;;;;20.95;13.38;;;16.00;99.40;;;;;;5048031;28;20047;-69
2023/09/28 12:18:50;;;;;;;19.35;11.85;;;16.00;99.40;;;;;;5052676;28;20032;-70
2023/09/28 12:21:18;;;;;;;20.88;12.50;;;16.10;99.60;;;;;;5054481;28;20051;-69
2023/09/28 12:23:46;;;;;;;21.17;12.05;;;16.10;99.00;;;;;;5053821;28;20055;-69
2023/09/28 12:26:13;;;;;;;24.30;11.93;;;16.00;99.00;;;;;;5060242;28;20196;-69
2023/09/28 12:28:42;;;;;;;18.40;11.38;;;15.90;99.20;;;;;;5053431;28;20028;-69
2023/09/28 12:31:09;;;;;;;16.25;12.13;;;15.80;99.10;;;;;;5051712;28;20041;-70
2023/09/28 12:33:40;;;;;;;22.08;12.80;;;15.80;99.30;;;;;;5050639;28;20029;-69
2023/09/28 12:36:09;;;;;;;17.85;11.93;;;15.70;99.30;;;;;;5052678;28;20116;-69
2023/09/28 12:38:37;;;;;;;19.55;12.10;;;15.70;99.30;;;;;;5053692;28;20043;-69
2023/09/28 12:41:05;;;;;;;25.52;13.07;;;15.70;99.40;;;;;;5053319;28;20045;-69
2023/09/28 12:43:32;;;;;;;23.38;12.18;;;15.70;99.60;;;;;;5049935;28;20078;-69
2023/09/28 12:46:00;;;;;;;22.85;12.23;;;15.60;99.30;;;;;;5050969;28;20433;-69
2023/09/28 12:48:27;;;;;;;22.13;11.35;;;15.60;99.30;;;;;;5056745;28;20063;-68
2023/09/28 12:50:55;;;;;;;21.27;10.93;;;15.60;99.30;;;;;;5057183;28;20044;-70
2023/09/28 12:53:22;;;;;;;16.10;11.10;;;15.60;99.30;;;;;;5058810;28;20048;-70
2023/09/28 12:55:50;;;;;;;18.08;10.65;;;15.50;99.30;;;;;;5061747;28;20640;-68